createdAt,value
2018-01-12T00:00:36.152Z,1023.07
2018-01-12T00:01:37.579Z,1023.05
2018-01-12T00:02:37.153Z,1023.06
2018-01-12T00:03:37.169Z,1023.07
2018-01-12T00:04:36.025Z,1023.05
2018-01-12T00:05:36.944Z,1023.06
2018-01-12T00:06:37.952Z,1023.09
2018-01-12T00:07:36.270Z,1023.13
2018-01-12T00:08:36.530Z,1023.14
2018-01-12T00:09:37.224Z,1023.14
2018-01-12T00:10:36.839Z,1023.12
2018-01-12T00:11:36.319Z,1023.15
2018-01-12T00:12:36.240Z,1023.17
2018-01-12T00:13:35.759Z,1023.18
2018-01-12T00:14:35.992Z,1023.20
2018-01-12T00:15:36.742Z,1023.21
2018-01-12T00:16:36.326Z,1023.21
2018-01-12T00:17:35.815Z,1023.20
2018-01-12T00:18:36.487Z,1023.21
2018-01-12T00:19:36.054Z,1023.17
2018-01-12T00:20:36.583Z,1023.19
2018-01-12T00:21:36.058Z,1023.20
2018-01-12T00:22:35.450Z,1023.20
2018-01-12T00:23:36.070Z,1023.15
2018-01-12T00:24:57.795Z,1023.13
2018-01-12T00:25:58.301Z,1023.19
2018-01-12T00:26:58.729Z,1023.17
2018-01-12T00:27:58.483Z,1023.22
2018-01-12T00:28:57.955Z,1023.21
2018-01-12T00:29:59.942Z,1023.19
2018-01-12T00:30:58.490Z,1023.18
2018-01-12T00:31:57.768Z,1023.20
2018-01-12T00:32:58.312Z,1023.21
2018-01-12T00:33:59.037Z,1023.24
2018-01-12T00:34:58.532Z,1023.24
2018-01-12T00:35:58.080Z,1023.25
2018-01-12T00:36:58.566Z,1023.22
2018-01-12T00:37:58.370Z,1023.28
2018-01-12T00:38:57.882Z,1023.25
2018-01-12T00:39:58.202Z,1023.27
2018-01-12T00:40:59.093Z,1023.28
2018-01-12T00:41:58.272Z,1023.29
2018-01-12T00:42:58.998Z,1023.32
2018-01-12T00:43:58.704Z,1023.31
2018-01-12T00:45:42.041Z,1023.33
2018-01-12T00:46:42.452Z,1023.35
2018-01-12T00:47:42.187Z,1023.34
2018-01-12T00:48:43.018Z,1023.38
2018-01-12T00:49:42.480Z,1023.38
2018-01-12T00:50:43.123Z,1023.42
2018-01-12T00:52:04.042Z,1023.43
2018-01-12T00:53:04.311Z,1023.47
2018-01-12T00:54:03.771Z,1023.45
2018-01-12T00:55:04.045Z,1023.47
2018-01-12T00:56:04.304Z,1023.46
2018-01-12T00:57:03.612Z,1023.40
2018-01-12T00:58:04.478Z,1023.44
2018-01-12T00:59:03.822Z,1023.46
2018-01-12T01:00:04.661Z,1023.39
2018-01-12T01:01:04.051Z,1023.41
2018-01-12T01:02:04.694Z,1023.46
2018-01-12T01:03:03.925Z,1023.41
2018-01-12T01:04:04.890Z,1023.49
2018-01-12T01:05:04.363Z,1023.46
2018-01-12T01:06:03.944Z,1023.44
2018-01-12T01:07:04.335Z,1023.51
2018-01-12T01:08:04.319Z,1023.49
2018-01-12T01:09:03.664Z,1023.48
2018-01-12T01:10:04.498Z,1023.52
2018-01-12T01:11:03.950Z,1023.54
2018-01-12T01:12:04.365Z,1023.52
2018-01-12T01:13:04.036Z,1023.52
2018-01-12T01:14:05.238Z,1023.54
2018-01-12T01:15:04.041Z,1023.54
2018-01-12T01:16:27.487Z,1023.55
2018-01-12T01:17:27.815Z,1023.55
2018-01-12T01:18:27.275Z,1023.54
2018-01-12T01:19:27.536Z,1023.52
2018-01-12T01:20:28.268Z,1023.55
2018-01-12T01:21:27.705Z,1023.54
2018-01-12T01:22:27.025Z,1023.58
2018-01-12T01:23:27.638Z,1023.58
2018-01-12T01:24:28.412Z,1023.62
2018-01-12T01:25:29.539Z,1023.62
2018-01-12T01:26:28.343Z,1023.60
2018-01-12T01:27:28.115Z,1023.70
2018-01-12T01:28:27.573Z,1023.66
2018-01-12T01:29:27.280Z,1023.71
2018-01-12T01:30:28.067Z,1023.70
2018-01-12T01:31:27.576Z,1023.71
2018-01-12T01:32:27.474Z,1023.72
2018-01-12T01:33:28.339Z,1023.75
2018-01-12T01:34:27.977Z,1023.76
2018-01-12T01:35:27.216Z,1023.80
2018-01-12T01:36:27.465Z,1023.78
2018-01-12T01:37:28.335Z,1023.82
2018-01-12T01:38:27.747Z,1023.80
2018-01-12T01:39:27.652Z,1023.85
2018-01-12T01:40:28.461Z,1023.82
2018-01-12T01:41:27.944Z,1023.81
2018-01-12T01:42:27.195Z,1023.81
2018-01-12T01:43:27.523Z,1023.77
2018-01-12T01:44:28.241Z,1023.77
2018-01-12T01:45:27.741Z,1023.78
2018-01-12T01:46:49.943Z,1023.82
2018-01-12T01:47:50.263Z,1023.80
2018-01-12T01:48:50.698Z,1023.81
2018-01-12T01:49:49.903Z,1023.85
2018-01-12T01:50:50.768Z,1023.83
2018-01-12T01:51:50.534Z,1023.81
2018-01-12T01:52:51.176Z,1023.81
2018-01-12T01:53:51.063Z,1023.82
2018-01-12T01:54:50.415Z,1023.81
2018-01-12T01:55:50.902Z,1023.83
2018-01-12T01:56:50.688Z,1023.81
2018-01-12T01:57:50.124Z,1023.86
2018-01-12T01:58:50.593Z,1023.82
2018-01-12T02:00:11.461Z,1023.91
2018-01-12T02:01:11.656Z,1023.88
2018-01-12T02:02:12.407Z,1023.86
2018-01-12T02:03:11.966Z,1023.85
2018-01-12T02:04:11.480Z,1023.85
2018-01-12T02:05:12.365Z,1023.83
2018-01-12T02:06:54.457Z,1023.82
2018-01-12T02:07:55.105Z,1023.85
2018-01-12T02:08:54.690Z,1023.85
2018-01-12T02:09:55.034Z,1023.86
2018-01-12T02:10:54.838Z,1023.86
2018-01-12T02:11:55.464Z,1023.87
2018-01-12T02:12:55.122Z,1023.86
2018-01-12T02:13:54.449Z,1023.89
2018-01-12T02:14:54.744Z,1023.85
2018-01-12T02:16:16.043Z,1023.92
2018-01-12T02:17:16.655Z,1023.94
2018-01-12T02:18:16.240Z,1023.92
2018-01-12T02:19:16.646Z,1023.94
2018-01-12T02:20:16.071Z,1023.93
2018-01-12T02:21:16.456Z,1023.98
2018-01-12T02:22:16.333Z,1023.99
2018-01-12T02:23:16.391Z,1024.02
2018-01-12T02:24:15.964Z,1024.07
2018-01-12T02:25:16.573Z,1024.06
2018-01-12T02:26:16.250Z,1024.08
2018-01-12T02:27:16.726Z,1024.11
2018-01-12T02:28:16.356Z,1024.09
2018-01-12T02:29:15.543Z,1024.11
2018-01-12T02:30:16.464Z,1024.18
2018-01-12T02:31:15.852Z,1024.12
2018-01-12T02:32:16.306Z,1024.13
2018-01-12T02:33:16.016Z,1024.08
2018-01-12T02:34:16.871Z,1024.13
2018-01-12T02:35:16.649Z,1024.11
2018-01-12T02:36:16.237Z,1024.10
2018-01-12T02:37:16.700Z,1024.13
2018-01-12T02:38:16.538Z,1024.11
2018-01-12T02:39:58.460Z,1024.09
2018-01-12T02:40:58.878Z,1024.11
2018-01-12T02:41:59.175Z,1024.15
2018-01-12T02:42:58.628Z,1024.14
2018-01-12T02:44:41.731Z,1024.14
2018-01-12T02:45:42.229Z,1024.11
2018-01-12T02:46:42.552Z,1024.14
2018-01-12T02:47:41.973Z,1024.14
2018-01-12T02:48:42.537Z,1024.15
2018-01-12T02:50:05.534Z,1024.09
2018-01-12T02:51:06.437Z,1024.18
2018-01-12T02:52:06.147Z,1024.16
2018-01-12T02:53:27.265Z,1024.11
2018-01-12T02:54:28.342Z,1024.14
2018-01-12T02:55:28.109Z,1024.14
2018-01-12T02:56:27.979Z,1024.15
2018-01-12T02:57:27.663Z,1024.18
2018-01-12T02:58:26.993Z,1024.19
2018-01-12T02:59:48.666Z,1024.22
2018-01-12T03:00:49.430Z,1024.24
2018-01-12T03:01:49.350Z,1024.25
2018-01-12T03:02:49.066Z,1024.24
2018-01-12T03:03:48.467Z,1024.28
2018-01-12T03:04:48.968Z,1024.29
2018-01-12T03:05:49.722Z,1024.27
2018-01-12T03:06:49.209Z,1024.32
2018-01-12T03:07:49.789Z,1024.35
2018-01-12T03:08:49.074Z,1024.36
2018-01-12T03:09:48.554Z,1024.33
2018-01-12T03:10:49.197Z,1024.35
2018-01-12T03:11:48.994Z,1024.36
2018-01-12T03:12:49.336Z,1024.37
2018-01-12T03:13:48.861Z,1024.32
2018-01-12T03:14:49.215Z,1024.34
2018-01-12T03:15:49.924Z,1024.33
2018-01-12T03:16:49.762Z,1024.34
2018-01-12T03:17:49.097Z,1024.33
2018-01-12T03:18:48.559Z,1024.34
2018-01-12T03:19:49.193Z,1024.36
2018-01-12T03:20:48.623Z,1024.38
2018-01-12T03:21:48.992Z,1024.40
2018-01-12T03:22:49.770Z,1024.36
2018-01-12T03:23:48.905Z,1024.37
2018-01-12T03:24:49.616Z,1024.40
2018-01-12T03:25:49.310Z,1024.38
2018-01-12T03:26:48.464Z,1024.40
2018-01-12T03:27:49.276Z,1024.42
2018-01-12T03:28:48.938Z,1024.38
2018-01-12T03:30:31.553Z,1024.39
2018-01-12T03:31:32.080Z,1024.38
2018-01-12T03:32:32.838Z,1024.35
2018-01-12T03:33:32.130Z,1024.37
2018-01-12T03:34:52.660Z,1024.37
2018-01-12T03:35:53.039Z,1024.35
2018-01-12T03:36:53.510Z,1024.37
2018-01-12T03:37:52.711Z,1024.38
2018-01-12T03:38:53.068Z,1024.38
2018-01-12T03:40:14.316Z,1024.36
2018-01-12T03:41:14.562Z,1024.35
2018-01-12T03:42:15.410Z,1024.37
2018-01-12T03:43:15.173Z,1024.37
2018-01-12T03:44:14.763Z,1024.35
2018-01-12T03:45:15.531Z,1024.37
2018-01-12T03:46:14.855Z,1024.41
2018-01-12T03:47:36.252Z,1024.38
2018-01-12T03:48:36.613Z,1024.39
2018-01-12T03:49:37.091Z,1024.38
2018-01-12T03:50:36.769Z,1024.38
2018-01-12T03:51:57.733Z,1024.42
2018-01-12T03:52:58.182Z,1024.40
2018-01-12T03:53:58.428Z,1024.42
2018-01-12T03:54:58.557Z,1024.43
2018-01-12T03:55:58.005Z,1024.41
2018-01-12T03:56:58.818Z,1024.40
2018-01-12T03:58:20.010Z,1024.38
2018-01-12T03:59:20.763Z,1024.38
2018-01-12T04:00:19.832Z,1024.40
2018-01-12T04:01:19.983Z,1024.41
2018-01-12T04:02:20.476Z,1024.40
2018-01-12T04:03:19.684Z,1024.40
2018-01-12T04:04:20.186Z,1024.41
2018-01-12T04:05:55.084Z,1024.38
2018-01-12T04:06:55.347Z,1024.41
2018-01-12T04:07:55.765Z,1024.37
2018-01-12T04:08:55.429Z,1024.38
2018-01-12T04:09:55.972Z,1024.38
2018-01-12T04:10:55.290Z,1024.44
2018-01-12T04:11:56.074Z,1024.40
2018-01-12T04:12:55.488Z,1024.44
2018-01-12T04:13:55.516Z,1024.40
2018-01-12T04:14:56.070Z,1024.41
2018-01-12T04:16:16.371Z,1024.39
2018-01-12T04:17:16.691Z,1024.38
2018-01-12T04:18:17.376Z,1024.41
2018-01-12T04:19:16.860Z,1024.41
2018-01-12T04:20:17.126Z,1024.39
2018-01-12T04:21:16.857Z,1024.35
2018-01-12T04:22:17.127Z,1024.37
2018-01-12T04:23:16.398Z,1024.37
2018-01-12T04:24:16.710Z,1024.41
2018-01-12T04:25:17.228Z,1024.36
2018-01-12T04:26:16.682Z,1024.40
2018-01-12T04:27:17.156Z,1024.36
2018-01-12T04:28:17.064Z,1024.36
2018-01-12T04:29:16.796Z,1024.34
2018-01-12T04:30:17.350Z,1024.34
2018-01-12T04:31:16.532Z,1024.37
2018-01-12T04:32:16.654Z,1024.37
2018-01-12T04:33:16.865Z,1024.35
2018-01-12T04:34:16.279Z,1024.38
2018-01-12T04:35:16.587Z,1024.39
2018-01-12T04:36:17.216Z,1024.39
2018-01-12T04:37:16.725Z,1024.42
2018-01-12T04:38:17.203Z,1024.43
2018-01-12T04:39:17.011Z,1024.41
2018-01-12T04:40:17.123Z,1024.36
2018-01-12T04:41:16.871Z,1024.39
2018-01-12T04:42:17.038Z,1024.37
2018-01-12T04:43:16.544Z,1024.34
2018-01-12T04:44:17.541Z,1024.35
2018-01-12T04:45:16.799Z,1024.35
2018-01-12T04:46:17.333Z,1024.32
2018-01-12T04:47:16.868Z,1024.30
2018-01-12T04:48:16.925Z,1024.34
2018-01-12T04:49:17.510Z,1024.29
2018-01-12T04:50:16.713Z,1024.29
2018-01-12T04:51:17.131Z,1024.31
2018-01-12T04:52:16.530Z,1024.29
2018-01-12T04:54:00.818Z,1024.27
2018-01-12T04:55:01.327Z,1024.26
2018-01-12T04:56:01.777Z,1024.22
2018-01-12T04:57:01.419Z,1024.28
2018-01-12T04:58:00.990Z,1024.27
2018-01-12T04:59:01.742Z,1024.27
2018-01-12T05:00:01.421Z,1024.28
2018-01-12T05:01:01.988Z,1024.26
2018-01-12T05:02:01.430Z,1024.28
2018-01-12T05:03:01.149Z,1024.29
2018-01-12T05:04:01.707Z,1024.30
2018-01-12T05:05:01.394Z,1024.29
2018-01-12T05:06:01.027Z,1024.31
2018-01-12T05:07:02.170Z,1024.32
2018-01-12T05:08:02.052Z,1024.32
2018-01-12T05:09:01.614Z,1024.33
2018-01-12T05:10:01.058Z,1024.31
2018-01-12T05:11:01.780Z,1024.32
2018-01-12T05:12:01.648Z,1024.29
2018-01-12T05:13:01.452Z,1024.33
2018-01-12T05:14:00.984Z,1024.33
2018-01-12T05:15:01.666Z,1024.33
2018-01-12T05:16:01.548Z,1024.32
2018-01-12T05:17:00.935Z,1024.33
2018-01-12T05:18:01.500Z,1024.34
2018-01-12T05:19:01.881Z,1024.32
2018-01-12T05:20:01.501Z,1024.31
2018-01-12T05:21:01.954Z,1024.30
2018-01-12T05:22:01.616Z,1024.27
2018-01-12T05:23:01.643Z,1024.31
2018-01-12T05:24:00.952Z,1024.33
2018-01-12T05:25:01.501Z,1024.31
2018-01-12T05:26:00.765Z,1024.33
2018-01-12T05:27:00.999Z,1024.32
2018-01-12T05:28:01.413Z,1024.36
2018-01-12T05:29:01.779Z,1024.37
2018-01-12T05:30:01.072Z,1024.40
2018-01-12T05:31:01.380Z,1024.42
2018-01-12T05:32:01.966Z,1024.42
2018-01-12T05:33:01.669Z,1024.41
2018-01-12T05:34:00.883Z,1024.42
2018-01-12T05:35:01.659Z,1024.44
2018-01-12T05:36:00.929Z,1024.41
2018-01-12T05:37:01.803Z,1024.41
2018-01-12T05:38:22.219Z,1024.39
2018-01-12T05:39:23.288Z,1024.39
2018-01-12T05:40:22.525Z,1024.40
2018-01-12T05:41:23.256Z,1024.44
2018-01-12T05:42:43.784Z,1024.44
2018-01-12T05:43:44.359Z,1024.45
2018-01-12T05:44:44.739Z,1024.45
2018-01-12T05:45:44.034Z,1024.46
2018-01-12T05:46:44.523Z,1024.46
2018-01-12T05:47:44.859Z,1024.52
2018-01-12T05:48:44.179Z,1024.50
2018-01-12T05:49:44.372Z,1024.48
2018-01-12T05:50:45.097Z,1024.50
2018-01-12T05:51:44.427Z,1024.51
2018-01-12T05:52:44.497Z,1024.50
2018-01-12T05:53:45.247Z,1024.51
2018-01-12T05:54:44.650Z,1024.49
2018-01-12T05:55:43.986Z,1024.51
2018-01-12T05:56:44.644Z,1024.52
2018-01-12T05:57:44.353Z,1024.53
2018-01-12T05:58:44.386Z,1024.54
2018-01-12T05:59:44.705Z,1024.54
2018-01-12T06:00:43.998Z,1024.59
2018-01-12T06:01:44.122Z,1024.56
2018-01-12T06:02:44.312Z,1024.59
2018-01-12T06:03:45.226Z,1024.59
2018-01-12T06:04:45.194Z,1024.58
2018-01-12T06:05:44.743Z,1024.57
2018-01-12T06:06:45.176Z,1024.62
2018-01-12T06:08:07.700Z,1024.57
2018-01-12T06:09:07.995Z,1024.64
2018-01-12T06:10:08.784Z,1024.63
2018-01-12T06:11:08.186Z,1024.60
2018-01-12T06:12:07.374Z,1024.58
2018-01-12T06:13:08.074Z,1024.61
2018-01-12T06:14:07.518Z,1024.62
2018-01-12T06:15:07.831Z,1024.64
2018-01-12T06:16:08.141Z,1024.64
2018-01-12T06:17:09.026Z,1024.69
2018-01-12T06:18:08.145Z,1024.72
2018-01-12T06:19:09.090Z,1024.71
2018-01-12T06:20:08.674Z,1024.65
2018-01-12T06:21:08.302Z,1024.70
2018-01-12T06:22:07.831Z,1024.70
2018-01-12T06:23:30.449Z,1024.76
2018-01-12T06:24:31.036Z,1024.74
2018-01-12T06:25:31.436Z,1024.73
2018-01-12T06:26:30.839Z,1024.79
2018-01-12T06:27:31.556Z,1024.78
2018-01-12T06:28:31.238Z,1024.79
2018-01-12T06:29:53.045Z,1024.86
2018-01-12T06:30:53.138Z,1024.88
2018-01-12T06:31:53.418Z,1024.86
2018-01-12T06:32:53.656Z,1024.87
2018-01-12T06:33:53.854Z,1024.86
2018-01-12T06:34:54.236Z,1024.88
2018-01-12T06:36:14.889Z,1024.93
2018-01-12T06:37:15.345Z,1024.95
2018-01-12T06:38:14.735Z,1024.97
2018-01-12T06:39:15.002Z,1024.97
2018-01-12T06:40:15.800Z,1024.96
2018-01-12T06:41:15.341Z,1024.96
2018-01-12T06:42:14.569Z,1024.97
2018-01-12T06:43:14.615Z,1024.99
2018-01-12T06:44:26.649Z,1024.96
2018-01-12T06:45:25.934Z,1025.01
2018-01-12T06:46:26.260Z,1025.00
2018-01-12T06:47:25.983Z,1025.01
2018-01-12T06:48:26.432Z,1024.99
2018-01-12T06:49:25.972Z,1024.99
2018-01-12T06:50:26.271Z,1025.04
2018-01-12T06:51:26.125Z,1025.07
2018-01-12T06:52:56.111Z,1025.05
2018-01-12T06:53:25.456Z,1025.06
2018-01-12T06:54:25.663Z,1025.06
2018-01-12T06:55:26.315Z,1025.10
2018-01-12T06:56:26.339Z,1025.10
2018-01-12T06:57:25.569Z,1025.13
2018-01-12T06:58:26.084Z,1025.13
2018-01-12T06:59:26.671Z,1025.17
2018-01-12T07:00:26.006Z,1025.16
2018-01-12T07:01:47.541Z,1025.17
2018-01-12T07:02:47.760Z,1025.19
2018-01-12T07:03:48.002Z,1025.19
2018-01-12T07:04:48.525Z,1025.17
2018-01-12T07:05:47.810Z,1025.21
2018-01-12T07:06:48.673Z,1025.19
2018-01-12T07:07:47.869Z,1025.22
2018-01-12T07:08:48.099Z,1025.23
2018-01-12T07:09:48.884Z,1025.25
2018-01-12T07:10:48.205Z,1025.25
2018-01-12T07:11:48.715Z,1025.24
2018-01-12T07:12:48.314Z,1025.25
2018-01-12T07:13:48.699Z,1025.26
2018-01-12T07:14:47.789Z,1025.27
2018-01-12T07:15:47.853Z,1025.31
2018-01-12T07:16:48.503Z,1025.30
2018-01-12T07:17:47.931Z,1025.28
2018-01-12T07:18:48.404Z,1025.31
2018-01-12T07:19:49.433Z,1025.30
2018-01-12T07:20:48.250Z,1025.30
2018-01-12T07:21:48.697Z,1025.32
2018-01-12T07:22:48.533Z,1025.32
2018-01-12T07:23:47.804Z,1025.29
2018-01-12T07:24:48.024Z,1025.32
2018-01-12T07:25:48.627Z,1025.31
2018-01-12T07:26:48.348Z,1025.28
2018-01-12T07:28:10.631Z,1025.35
2018-01-12T07:29:32.913Z,1025.32
2018-01-12T07:30:33.015Z,1025.28
2018-01-12T07:31:32.383Z,1025.33
2018-01-12T07:32:32.942Z,1025.31
2018-01-12T07:33:33.544Z,1025.36
2018-01-12T07:34:33.287Z,1025.31
2018-01-12T07:35:32.454Z,1025.36
2018-01-12T07:36:32.856Z,1025.31
2018-01-12T07:37:33.666Z,1025.34
2018-01-12T07:38:33.425Z,1025.30
2018-01-12T07:39:33.111Z,1025.31
2018-01-12T07:40:33.240Z,1025.35
2018-01-12T07:41:33.127Z,1025.38
2018-01-12T07:42:34.478Z,1025.42
2018-01-12T07:43:53.938Z,1025.39
2018-01-12T07:44:54.348Z,1025.43
2018-01-12T07:45:54.925Z,1025.45
2018-01-12T07:46:54.668Z,1025.45
2018-01-12T07:47:54.099Z,1025.46
2018-01-12T07:48:54.434Z,1025.44
2018-01-12T07:49:55.078Z,1025.49
2018-01-12T07:50:54.413Z,1025.51
2018-01-12T07:51:53.815Z,1025.53
2018-01-12T07:52:54.611Z,1025.51
2018-01-12T07:53:54.076Z,1025.57
2018-01-12T07:54:54.191Z,1025.55
2018-01-12T07:55:54.633Z,1025.56
2018-01-12T07:56:54.039Z,1025.57
2018-01-12T07:57:54.068Z,1025.57
2018-01-12T07:58:55.236Z,1025.58
2018-01-12T07:59:53.581Z,1025.60
2018-01-12T08:00:53.955Z,1025.64
2018-01-12T08:01:54.706Z,1025.70
2018-01-12T08:02:53.861Z,1025.69
2018-01-12T08:03:54.288Z,1025.69
2018-01-12T08:04:54.355Z,1025.73
2018-01-12T08:05:55.169Z,1025.76
2018-01-12T08:06:54.366Z,1025.74
2018-01-12T08:07:54.182Z,1025.73
2018-01-12T08:08:54.613Z,1025.79
2018-01-12T08:09:54.450Z,1025.78
2018-01-12T08:10:54.156Z,1025.80
2018-01-12T08:12:15.284Z,1025.79
2018-01-12T08:13:15.611Z,1025.83
2018-01-12T08:14:16.041Z,1025.84
2018-01-12T08:15:36.671Z,1025.82
2018-01-12T08:16:37.022Z,1025.86
2018-01-12T08:17:37.738Z,1025.90
2018-01-12T08:18:36.996Z,1025.89
2018-01-12T08:19:37.299Z,1025.93
2018-01-12T08:20:58.683Z,1025.94
2018-01-12T08:21:59.216Z,1025.95
2018-01-12T08:22:58.713Z,1025.92
2018-01-12T08:23:59.468Z,1025.95
2018-01-12T08:24:58.695Z,1025.94
2018-01-12T08:25:59.431Z,1025.95
2018-01-12T08:27:20.939Z,1025.99
2018-01-12T08:28:21.502Z,1025.98
2018-01-12T08:29:22.070Z,1026.00
2018-01-12T08:30:21.732Z,1026.00
2018-01-12T08:31:21.063Z,1026.04
2018-01-12T08:32:21.821Z,1026.02
2018-01-12T08:33:21.207Z,1026.04
2018-01-12T08:34:21.800Z,1026.01
2018-01-12T08:35:21.386Z,1026.02
2018-01-12T08:36:21.855Z,1026.06
2018-01-12T08:37:21.603Z,1026.04
2018-01-12T08:38:21.150Z,1026.06
2018-01-12T08:39:22.193Z,1026.04
2018-01-12T08:40:22.145Z,1026.02
2018-01-12T08:41:21.662Z,1026.05
2018-01-12T08:42:21.156Z,1026.04
2018-01-12T08:43:21.374Z,1026.06
2018-01-12T08:44:21.733Z,1026.04
2018-01-12T08:45:21.614Z,1026.07
2018-01-12T08:46:21.690Z,1026.08
2018-01-12T08:47:21.234Z,1026.07
2018-01-12T08:48:43.696Z,1026.09
2018-01-12T08:49:44.135Z,1026.09
2018-01-12T08:50:43.429Z,1026.13
2018-01-12T08:51:44.054Z,1026.14
2018-01-12T08:53:05.168Z,1026.18
2018-01-12T08:54:05.408Z,1026.21
2018-01-12T08:55:05.839Z,1026.21
2018-01-12T08:56:05.357Z,1026.26
2018-01-12T08:57:04.842Z,1026.26
2018-01-12T08:58:05.821Z,1026.29
2018-01-12T08:59:27.103Z,1026.31
2018-01-12T09:00:27.716Z,1026.34
2018-01-12T09:01:27.789Z,1026.34
2018-01-12T09:02:27.160Z,1026.39
2018-01-12T09:03:27.765Z,1026.38
2018-01-12T09:04:27.354Z,1026.38
2018-01-12T09:05:27.097Z,1026.42
2018-01-12T09:06:49.400Z,1026.40
2018-01-12T09:07:49.695Z,1026.41
2018-01-12T09:08:49.603Z,1026.41
2018-01-12T09:09:50.145Z,1026.42
2018-01-12T09:10:49.910Z,1026.43
2018-01-12T09:11:49.225Z,1026.46
2018-01-12T09:13:11.277Z,1026.49
2018-01-12T09:15:09.940Z,1026.49
2018-01-12T09:16:07.732Z,1026.54
2018-01-12T09:17:07.232Z,1026.54
2018-01-12T09:18:07.248Z,1026.57
2018-01-12T09:19:07.002Z,1026.58
2018-01-12T09:20:29.822Z,1026.61
2018-01-12T09:21:31.130Z,1026.61
2018-01-12T09:22:31.944Z,1026.64
2018-01-12T09:23:31.919Z,1026.65
2018-01-12T09:24:31.474Z,1026.70
2018-01-12T09:25:30.347Z,1026.69
2018-01-12T09:26:31.665Z,1026.72
2018-01-12T09:27:31.374Z,1026.71
2018-01-12T09:28:30.584Z,1026.75
2018-01-12T09:29:29.212Z,1026.72
2018-01-12T09:30:29.552Z,1026.69
2018-01-12T09:31:29.359Z,1026.69
2018-01-12T09:32:34.859Z,1026.72
2018-01-12T09:33:31.008Z,1026.73
2018-01-12T09:34:31.023Z,1026.71
2018-01-12T09:35:32.577Z,1026.74
2018-01-12T09:36:29.307Z,1026.74
2018-01-12T09:37:35.596Z,1026.76
2018-01-12T09:38:34.949Z,1026.72
2018-01-12T09:39:35.014Z,1026.71
2018-01-12T09:40:31.137Z,1026.80
2018-01-12T09:41:29.987Z,1026.76
2018-01-12T09:42:34.938Z,1026.74
2018-01-12T09:43:29.220Z,1026.78
2018-01-12T09:44:35.150Z,1026.81
2018-01-12T09:45:35.813Z,1026.80
2018-01-12T09:46:31.507Z,1026.82
2018-01-12T09:47:31.449Z,1026.82
2018-01-12T09:48:30.532Z,1026.83
2018-01-12T09:49:30.121Z,1026.85
2018-01-12T09:50:30.440Z,1026.89
2018-01-12T09:51:29.266Z,1026.92
2018-01-12T09:52:29.008Z,1026.88
2018-01-12T09:53:29.227Z,1026.92
2018-01-12T09:54:29.658Z,1026.92
2018-01-12T09:55:29.222Z,1026.91
2018-01-12T09:56:29.573Z,1026.88
2018-01-12T09:57:28.958Z,1026.89
2018-01-12T09:58:29.438Z,1026.89
2018-01-12T09:59:29.230Z,1026.96
2018-01-12T10:00:29.888Z,1026.96
2018-01-12T10:01:29.240Z,1026.96
2018-01-12T10:02:29.954Z,1026.96
2018-01-12T10:03:29.524Z,1026.95
2018-01-12T10:04:49.923Z,1026.95
2018-01-12T10:06:12.181Z,1026.98
2018-01-12T10:07:12.658Z,1026.94
2018-01-12T10:08:33.974Z,1026.95
2018-01-12T10:09:34.410Z,1026.92
2018-01-12T10:10:34.089Z,1026.92
2018-01-12T10:11:33.890Z,1026.91
2018-01-12T10:12:36.182Z,1026.90
2018-01-12T10:13:33.466Z,1026.90
2018-01-12T10:14:34.113Z,1026.93
2018-01-12T10:15:34.360Z,1026.92
2018-01-12T10:16:33.844Z,1026.95
2018-01-12T10:17:34.381Z,1026.93
2018-01-12T10:18:34.034Z,1026.92
2018-01-12T10:19:34.488Z,1026.92
2018-01-12T10:20:34.039Z,1026.94
2018-01-12T10:21:34.130Z,1026.95
2018-01-12T10:22:33.871Z,1026.95
2018-01-12T10:23:34.546Z,1026.91
2018-01-12T10:24:34.250Z,1026.92
2018-01-12T10:25:34.116Z,1026.91
2018-01-12T10:26:34.534Z,1026.88
2018-01-12T10:27:34.240Z,1026.88
2018-01-12T10:28:55.193Z,1026.85
2018-01-12T10:29:55.461Z,1026.86
2018-01-12T10:30:56.114Z,1026.84
2018-01-12T10:31:55.872Z,1026.83
2018-01-12T10:32:55.911Z,1026.82
2018-01-12T10:35:00.625Z,1026.82
2018-01-12T10:36:02.186Z,1026.81
2018-01-12T10:37:01.040Z,1026.81
2018-01-12T10:38:02.232Z,1026.78
2018-01-12T10:39:00.596Z,1026.82
2018-01-12T10:40:00.783Z,1026.82
2018-01-12T10:41:01.100Z,1026.85
2018-01-12T10:42:01.394Z,1026.86
2018-01-12T10:43:22.577Z,1026.83
2018-01-12T10:44:23.239Z,1026.78
2018-01-12T10:45:23.037Z,1026.80
2018-01-12T10:46:22.290Z,1026.79
2018-01-12T10:47:22.745Z,1026.82
2018-01-12T10:48:23.576Z,1026.78
2018-01-12T10:49:23.221Z,1026.81
2018-01-12T10:50:22.610Z,1026.76
2018-01-12T10:51:22.974Z,1026.80
2018-01-12T10:52:22.393Z,1026.81
2018-01-12T10:53:23.141Z,1026.78
2018-01-12T10:54:23.245Z,1026.76
2018-01-12T10:55:22.753Z,1026.76
2018-01-12T10:56:23.538Z,1026.77
2018-01-12T10:57:44.113Z,1026.78
2018-01-12T10:58:44.396Z,1026.80
2018-01-12T10:59:44.764Z,1026.79
2018-01-12T11:00:45.260Z,1026.79
2018-01-12T11:01:44.469Z,1026.77
2018-01-12T11:02:44.864Z,1026.78
2018-01-12T11:03:45.145Z,1026.78
2018-01-12T11:04:44.485Z,1026.79
2018-01-12T11:05:45.005Z,1026.78
2018-01-12T11:06:44.612Z,1026.74
2018-01-12T11:07:44.924Z,1026.77
2018-01-12T11:08:44.458Z,1026.79
2018-01-12T11:09:44.803Z,1026.79
2018-01-12T11:10:44.320Z,1026.81
2018-01-12T11:11:44.989Z,1026.84
2018-01-12T11:12:44.767Z,1026.85
2018-01-12T11:14:06.041Z,1026.81
2018-01-12T11:15:07.162Z,1026.82
2018-01-12T11:16:08.900Z,1026.73
2018-01-12T11:17:06.375Z,1026.79
2018-01-12T11:18:05.942Z,1026.78
2018-01-12T11:19:06.355Z,1026.76
2018-01-12T11:20:06.054Z,1026.72
2018-01-12T11:21:52.154Z,1026.71
2018-01-12T11:22:52.411Z,1026.74
2018-01-12T11:23:50.909Z,1026.72
2018-01-12T11:25:12.481Z,1026.72
2018-01-12T11:26:34.333Z,1026.74
2018-01-12T11:27:34.647Z,1026.74
2018-01-12T11:28:35.138Z,1026.76
2018-01-12T11:29:34.712Z,1026.74
2018-01-12T11:30:35.442Z,1026.75
2018-01-12T11:31:35.086Z,1026.80
2018-01-12T11:32:34.657Z,1026.76
2018-01-12T11:33:35.195Z,1026.79
2018-01-12T11:34:34.630Z,1026.79
2018-01-12T11:35:35.320Z,1026.78
2018-01-12T11:36:35.065Z,1026.75
2018-01-12T11:37:34.387Z,1026.76
2018-01-12T11:38:35.731Z,1026.77
2018-01-12T11:39:35.160Z,1026.78
2018-01-12T11:40:34.407Z,1026.76
2018-01-12T11:41:34.700Z,1026.77
2018-01-12T11:42:35.381Z,1026.79
2018-01-12T11:43:34.973Z,1026.77
2018-01-12T11:44:35.003Z,1026.77
2018-01-12T11:45:34.359Z,1026.75
2018-01-12T11:46:56.044Z,1026.74
2018-01-12T11:47:56.551Z,1026.70
2018-01-12T11:49:18.931Z,1026.72
2018-01-12T11:50:19.659Z,1026.68
2018-01-12T11:51:19.987Z,1026.69
2018-01-12T11:52:20.035Z,1026.72
2018-01-12T11:53:19.864Z,1026.68
2018-01-12T11:54:19.191Z,1026.68
2018-01-12T11:55:20.042Z,1026.70
2018-01-12T11:56:19.795Z,1026.71
2018-01-12T11:57:20.608Z,1026.71
2018-01-12T11:58:19.513Z,1026.74
2018-01-12T11:59:19.460Z,1026.67
2018-01-12T12:00:19.134Z,1026.67
2018-01-12T12:01:19.523Z,1026.66
2018-01-12T12:02:40.745Z,1026.70
2018-01-12T12:03:41.605Z,1026.68
2018-01-12T12:05:02.864Z,1026.68
2018-01-12T12:06:04.158Z,1026.73
2018-01-12T12:07:02.852Z,1026.73
2018-01-12T12:08:03.168Z,1026.70
2018-01-12T12:09:24.951Z,1026.72
2018-01-12T12:10:25.454Z,1026.68
2018-01-12T12:11:26.247Z,1026.70
2018-01-12T12:12:26.066Z,1026.70
2018-01-12T12:13:25.254Z,1026.67
2018-01-12T12:14:25.402Z,1026.65
2018-01-12T12:15:25.779Z,1026.68
2018-01-12T12:16:25.374Z,1026.71
2018-01-12T12:17:25.622Z,1026.66
2018-01-12T12:18:24.861Z,1026.65
2018-01-12T12:19:25.309Z,1026.67
2018-01-12T12:20:25.955Z,1026.66
2018-01-12T12:21:25.789Z,1026.68
2018-01-12T12:22:25.208Z,1026.64
2018-01-12T12:23:25.591Z,1026.66
2018-01-12T12:24:25.481Z,1026.64
2018-01-12T12:25:26.598Z,1026.63
2018-01-12T12:26:25.117Z,1026.67
2018-01-12T12:27:26.148Z,1026.64
2018-01-12T12:28:25.806Z,1026.61
2018-01-12T12:29:25.600Z,1026.59
2018-01-12T12:30:25.191Z,1026.61
2018-01-12T12:31:26.033Z,1026.61